sensor_id;sensor_type;location;lat;lon;timestamp;temperature;humidity
8595;DHT22;4335;48.860;9.198;2024-03-17T00:01:29;8.70;99.90
8595;DHT22;4335;48.860;9.198;2024-03-17T00:04:09;8.70;99.90
8595;DHT22;4335;48.860;9.198;2024-03-17T00:06:35;8.60;99.90
8595;DHT22;4335;48.860;9.198;2024-03-17T00:09:03;8.60;99.90
8595;DHT22;4335;48.860;9.198;2024-03-17T00:11:32;8.60;99.90
8595;DHT22;4335;48.860;9.198;2024-03-17T00:14:05;8.60;99.90
8595;DHT22;4335;48.860;9.198;2024-03-17T00:16:32;8.60;99.90
8595;DHT22;4335;48.860;9.198;2024-03-17T00:19:00;8.50;99.90
8595;DHT22;4335;48.860;9.198;2024-03-17T00:21:26;8.50;99.90
8595;DHT22;4335;48.860;9.198;2024-03-17T00:23:53;8.40;99.90
8595;DHT22;4335;48.860;9.198;2024-03-17T00:26:20;8.40;99.90
8595;DHT22;4335;48.860;9.198;2024-03-17T00:28:48;8.40;99.90
8595;DHT22;4335;48.860;9.198;2024-03-17T00:31:21;8.50;99.90
8595;DHT22;4335;48.860;9.198;2024-03-17T00:33:55;8.40;99.90
8595;DHT22;4335;48.860;9.198;2024-03-17T00:36:21;8.40;99.90
8595;DHT22;4335;48.860;9.198;2024-03-17T00:39:01;8.50;99.90
8595;DHT22;4335;48.860;9.198;2024-03-17T00:41:27;8.40;99.90
8595;DHT22;4335;48.860;9.198;2024-03-17T00:43:55;8.40;99.90
8595;DHT22;4335;48.860;9.198;2024-03-17T00:46:29;8.40;99.90
8595;DHT22;4335;48.860;9.198;2024-03-17T00:48:55;8.40;99.90
8595;DHT22;4335;48.860;9.198;2024-03-17T00:51:29;8.30;99.90
8595;DHT22;4335;48.860;9.198;2024-03-17T00:53:56;8.30;99.90
8595;DHT22;4335;48.860;9.198;2024-03-17T00:56:24;8.30;99.90
8595;DHT22;4335;48.860;9.198;2024-03-17T00:58:53;8.30;99.90
8595;DHT22;4335;48.860;9.198;2024-03-17T01:01:23;8.30;99.90
8595;DHT22;4335;48.860;9.198;2024-03-17T01:03:52;8.20;99.90
8595;DHT22;4335;48.860;9.198;2024-03-17T01:06:30;8.20;99.90
8595;DHT22;4335;48.860;9.198;2024-03-17T01:08:58;8.20;99.90
8595;DHT22;4335;48.860;9.198;2024-03-17T01:11:28;8.20;99.90
8595;DHT22;4335;48.860;9.198;2024-03-17T01:13:54;8.10;99.90
8595;DHT22;4335;48.860;9.198;2024-03-17T01:16:22;8.20;99.90
8595;DHT22;4335;48.860;9.198;2024-03-17T01:18:56;8.10;99.90
8595;DHT22;4335;48.860;9.198;2024-03-17T01:21:29;8.10;99.90
8595;DHT22;4335;48.860;9.198;2024-03-17T01:23:56;8.10;99.90
8595;DHT22;4335;48.860;9.198;2024-03-17T01:26:26;8.00;99.90
8595;DHT22;4335;48.860;9.198;2024-03-17T01:28:52;8.00;99.90
8595;DHT22;4335;48.860;9.198;2024-03-17T01:31:20;7.90;99.90
8595;DHT22;4335;48.860;9.198;2024-03-17T01:33:46;7.90;99.90
8595;DHT22;4335;48.860;9.198;2024-03-17T01:36:15;7.90;99.90
8595;DHT22;4335;48.860;9.198;2024-03-17T01:38:44;7.90;99.90
8595;DHT22;4335;48.860;9.198;2024-03-17T01:41:12;7.80;99.90
8595;DHT22;4335;48.860;9.198;2024-03-17T01:43:40;7.80;99.90
8595;DHT22;4335;48.860;9.198;2024-03-17T01:46:11;7.80;99.90
8595;DHT22;4335;48.860;9.198;2024-03-17T01:48:39;7.70;99.90
8595;DHT22;4335;48.860;9.198;2024-03-17T01:51:07;7.70;99.90
8595;DHT22;4335;48.860;9.198;2024-03-17T01:53:37;7.70;99.90
8595;DHT22;4335;48.860;9.198;2024-03-17T01:56:08;7.60;99.90
8595;DHT22;4335;48.860;9.198;2024-03-17T01:58:41;7.60;99.90
8595;DHT22;4335;48.860;9.198;2024-03-17T02:01:13;7.60;99.90
8595;DHT22;4335;48.860;9.198;2024-03-17T02:03:43;7.60;99.90
8595;DHT22;4335;48.860;9.198;2024-03-17T02:06:16;7.60;99.90
8595;DHT22;4335;48.860;9.198;2024-03-17T02:08:58;7.60;99.90
8595;DHT22;4335;48.860;9.198;2024-03-17T02:11:27;7.60;99.90
8595;DHT22;4335;48.860;9.198;2024-03-17T02:13:54;7.60;99.90
8595;DHT22;4335;48.860;9.198;2024-03-17T02:16:22;7.60;99.90
8595;DHT22;4335;48.860;9.198;2024-03-17T02:18:50;7.60;99.90
8595;DHT22;4335;48.860;9.198;2024-03-17T02:21:21;7.50;99.90
8595;DHT22;4335;48.860;9.198;2024-03-17T02:23:53;7.50;99.90
8595;DHT22;4335;48.860;9.198;2024-03-17T02:26:21;7.50;99.90
8595;DHT22;4335;48.860;9.198;2024-03-17T02:28:48;7.50;99.90
8595;DHT22;4335;48.860;9.198;2024-03-17T02:31:19;7.50;99.90
8595;DHT22;4335;48.860;9.198;2024-03-17T02:33:55;7.40;99.90
8595;DHT22;4335;48.860;9.198;2024-03-17T02:36:29;7.40;99.90
8595;DHT22;4335;48.860;9.198;2024-03-17T02:38:57;7.40;99.90
8595;DHT22;4335;48.860;9.198;2024-03-17T02:41:42;7.40;99.90
8595;DHT22;4335;48.860;9.198;2024-03-17T02:44:19;7.40;99.90
8595;DHT22;4335;48.860;9.198;2024-03-17T02:46:46;7.30;99.90
8595;DHT22;4335;48.860;9.198;2024-03-17T02:49:14;7.30;99.90
8595;DHT22;4335;48.860;9.198;2024-03-17T02:51:44;7.30;99.90
8595;DHT22;4335;48.860;9.198;2024-03-17T02:54:15;7.20;99.90
8595;DHT22;4335;48.860;9.198;2024-03-17T02:56:49;7.20;99.90
8595;DHT22;4335;48.860;9.198;2024-03-17T02:59:19;7.20;99.90
8595;DHT22;4335;48.860;9.198;2024-03-17T03:01:49;7.20;99.90
8595;DHT22;4335;48.860;9.198;2024-03-17T03:04:16;7.20;99.90
8595;DHT22;4335;48.860;9.198;2024-03-17T03:06:44;7.10;99.90
8595;DHT22;4335;48.860;9.198;2024-03-17T03:09:16;7.10;99.90
8595;DHT22;4335;48.860;9.198;2024-03-17T03:11:48;7.20;99.90
8595;DHT22;4335;48.860;9.198;2024-03-17T03:14:15;7.10;99.90
8595;DHT22;4335;48.860;9.198;2024-03-17T03:16:46;7.10;99.90
8595;DHT22;4335;48.860;9.198;2024-03-17T03:19:13;7.10;99.90
8595;DHT22;4335;48.860;9.198;2024-03-17T03:21:50;7.10;99.90
8595;DHT22;4335;48.860;9.198;2024-03-17T03:24:19;7.00;99.90
8595;DHT22;4335;48.860;9.198;2024-03-17T03:26:46;6.90;99.90
8595;DHT22;4335;48.860;9.198;2024-03-17T03:29:16;6.90;99.90
8595;DHT22;4335;48.860;9.198;2024-03-17T03:31:46;6.90;99.90
8595;DHT22;4335;48.860;9.198;2024-03-17T03:34:23;6.80;99.90
8595;DHT22;4335;48.860;9.198;2024-03-17T03:36:54;6.80;99.90
8595;DHT22;4335;48.860;9.198;2024-03-17T03:39:23;6.80;99.90
8595;DHT22;4335;48.860;9.198;2024-03-17T03:41:54;6.70;99.90
8595;DHT22;4335;48.860;9.198;2024-03-17T03:44:25;6.60;99.90
8595;DHT22;4335;48.860;9.198;2024-03-17T03:46:52;6.60;99.90
8595;DHT22;4335;48.860;9.198;2024-03-17T03:49:29;6.50;99.90
8595;DHT22;4335;48.860;9.198;2024-03-17T03:51:56;6.50;99.90
8595;DHT22;4335;48.860;9.198;2024-03-17T03:54:34;6.50;99.90
8595;DHT22;4335;48.860;9.198;2024-03-17T03:57:07;6.50;99.90
8595;DHT22;4335;48.860;9.198;2024-03-17T03:59:35;6.40;99.90
8595;DHT22;4335;48.860;9.198;2024-03-17T04:02:05;6.40;99.90
8595;DHT22;4335;48.860;9.198;2024-03-17T04:04:32;6.30;99.90
8595;DHT22;4335;48.860;9.198;2024-03-17T04:06:59;6.30;99.90
8595;DHT22;4335;48.860;9.198;2024-03-17T04:09:27;6.30;99.90
8595;DHT22;4335;48.860;9.198;2024-03-17T04:11:56;6.30;99.90
8595;DHT22;4335;48.860;9.198;2024-03-17T04:14:23;6.30;99.90
8595;DHT22;4335;48.860;9.198;2024-03-17T04:16:51;6.30;99.90
8595;DHT22;4335;48.860;9.198;2024-03-17T04:19:18;6.30;99.90
8595;DHT22;4335;48.860;9.198;2024-03-17T04:21:46;6.30;99.90
8595;DHT22;4335;48.860;9.198;2024-03-17T04:24:14;6.30;99.90
8595;DHT22;4335;48.860;9.198;2024-03-17T04:26:44;6.30;99.90
8595;DHT22;4335;48.860;9.198;2024-03-17T04:29:15;6.30;99.90
8595;DHT22;4335;48.860;9.198;2024-03-17T04:31:42;6.30;99.90
8595;DHT22;4335;48.860;9.198;2024-03-17T04:34:14;6.20;99.90
8595;DHT22;4335;48.860;9.198;2024-03-17T04:36:45;6.20;99.90
8595;DHT22;4335;48.860;9.198;2024-03-17T04:39:15;6.20;99.90
8595;DHT22;4335;48.860;9.198;2024-03-17T04:41:43;6.20;99.90
8595;DHT22;4335;48.860;9.198;2024-03-17T04:44:18;6.20;99.90
8595;DHT22;4335;48.860;9.198;2024-03-17T04:46:46;6.20;99.90
8595;DHT22;4335;48.860;9.198;2024-03-17T04:49:13;6.20;99.90
8595;DHT22;4335;48.860;9.198;2024-03-17T04:51:40;6.20;99.90
8595;DHT22;4335;48.860;9.198;2024-03-17T04:54:11;6.20;99.90
8595;DHT22;4335;48.860;9.198;2024-03-17T04:56:38;6.10;99.90
8595;DHT22;4335;48.860;9.198;2024-03-17T04:59:05;6.10;99.90
8595;DHT22;4335;48.860;9.198;2024-03-17T05:01:37;6.00;99.90
8595;DHT22;4335;48.860;9.198;2024-03-17T05:04:07;6.00;99.90
8595;DHT22;4335;48.860;9.198;2024-03-17T05:06:36;5.90;99.90
8595;DHT22;4335;48.860;9.198;2024-03-17T05:09:06;5.90;99.90
8595;DHT22;4335;48.860;9.198;2024-03-17T05:11:33;5.80;99.90
8595;DHT22;4335;48.860;9.198;2024-03-17T05:14:03;5.80;99.90
8595;DHT22;4335;48.860;9.198;2024-03-17T05:16:31;5.70;99.90
8595;DHT22;4335;48.860;9.198;2024-03-17T05:19:06;5.60;99.90
8595;DHT22;4335;48.860;9.198;2024-03-17T05:21:37;5.60;99.90
8595;DHT22;4335;48.860;9.198;2024-03-17T05:24:08;5.60;99.90
8595;DHT22;4335;48.860;9.198;2024-03-17T05:26:41;5.50;99.90
8595;DHT22;4335;48.860;9.198;2024-03-17T05:29:09;5.50;99.90
8595;DHT22;4335;48.860;9.198;2024-03-17T05:31:36;5.50;99.90
8595;DHT22;4335;48.860;9.198;2024-03-17T05:34:06;5.50;99.90
8595;DHT22;4335;48.860;9.198;2024-03-17T05:36:38;5.50;99.90
8595;DHT22;4335;48.860;9.198;2024-03-17T05:39:11;5.50;99.90
8595;DHT22;4335;48.860;9.198;2024-03-17T05:41:38;5.50;99.90
8595;DHT22;4335;48.860;9.198;2024-03-17T05:44:07;5.50;99.90
8595;DHT22;4335;48.860;9.198;2024-03-17T05:46:35;5.60;99.90
8595;DHT22;4335;48.860;9.198;2024-03-17T05:49:09;5.60;99.90
8595;DHT22;4335;48.860;9.198;2024-03-17T05:51:37;5.70;99.90
8595;DHT22;4335;48.860;9.198;2024-03-17T05:54:05;5.70;99.90
8595;DHT22;4335;48.860;9.198;2024-03-17T05:56:32;5.70;99.90
8595;DHT22;4335;48.860;9.198;2024-03-17T05:59:03;5.80;99.90
8595;DHT22;4335;48.860;9.198;2024-03-17T06:01:31;5.80;99.90
8595;DHT22;4335;48.860;9.198;2024-03-17T06:04:07;5.80;99.90
8595;DHT22;4335;48.860;9.198;2024-03-17T06:06:36;5.90;99.90
8595;DHT22;4335;48.860;9.198;2024-03-17T06:09:07;5.90;99.90
8595;DHT22;4335;48.860;9.198;2024-03-17T06:11:35;6.00;99.90
8595;DHT22;4335;48.860;9.198;2024-03-17T06:14:05;6.00;99.90
8595;DHT22;4335;48.860;9.198;2024-03-17T06:16:41;6.00;99.90
8595;DHT22;4335;48.860;9.198;2024-03-17T06:19:09;6.00;99.90
8595;DHT22;4335;48.860;9.198;2024-03-17T06:21:39;6.00;99.90
8595;DHT22;4335;48.860;9.198;2024-03-17T06:24:10;6.10;99.90
8595;DHT22;4335;48.860;9.198;2024-03-17T06:26:37;6.10;99.90
8595;DHT22;4335;48.860;9.198;2024-03-17T06:29:07;6.20;99.90
8595;DHT22;4335;48.860;9.198;2024-03-17T06:31:38;6.30;99.90
8595;DHT22;4335;48.860;9.198;2024-03-17T06:34:05;6.40;99.90
8595;DHT22;4335;48.860;9.198;2024-03-17T06:36:33;6.60;99.90
8595;DHT22;4335;48.860;9.198;2024-03-17T06:39:09;6.90;99.90
8595;DHT22;4335;48.860;9.198;2024-03-17T06:41:39;7.00;99.90
8595;DHT22;4335;48.860;9.198;2024-03-17T06:44:07;7.20;99.90
8595;DHT22;4335;48.860;9.198;2024-03-17T06:46:35;7.40;99.90
8595;DHT22;4335;48.860;9.198;2024-03-17T06:49:02;7.60;99.90
8595;DHT22;4335;48.860;9.198;2024-03-17T06:51:30;7.80;99.90
8595;DHT22;4335;48.860;9.198;2024-03-17T06:53:57;8.00;99.90
8595;DHT22;4335;48.860;9.198;2024-03-17T06:56:26;8.10;99.90
8595;DHT22;4335;48.860;9.198;2024-03-17T06:58:54;8.30;99.90
8595;DHT22;4335;48.860;9.198;2024-03-17T07:01:24;8.30;99.90
8595;DHT22;4335;48.860;9.198;2024-03-17T07:03:54;8.40;99.90
8595;DHT22;4335;48.860;9.198;2024-03-17T07:06:22;8.70;99.90
8595;DHT22;4335;48.860;9.198;2024-03-17T07:08:49;8.80;99.90
8595;DHT22;4335;48.860;9.198;2024-03-17T07:11:19;8.80;99.90
8595;DHT22;4335;48.860;9.198;2024-03-17T07:13:56;8.90;99.90
8595;DHT22;4335;48.860;9.198;2024-03-17T07:16:24;9.00;99.90
8595;DHT22;4335;48.860;9.198;2024-03-17T07:18:55;9.10;99.90
8595;DHT22;4335;48.860;9.198;2024-03-17T07:21:28;9.30;99.90
8595;DHT22;4335;48.860;9.198;2024-03-17T07:23:59;9.40;99.90
8595;DHT22;4335;48.860;9.198;2024-03-17T07:26:30;9.50;99.90
8595;DHT22;4335;48.860;9.198;2024-03-17T07:29:05;9.60;99.90
8595;DHT22;4335;48.860;9.198;2024-03-17T07:31:34;9.70;99.90
8595;DHT22;4335;48.860;9.198;2024-03-17T07:34:04;9.70;99.90
8595;DHT22;4335;48.860;9.198;2024-03-17T07:36:36;9.80;99.90
8595;DHT22;4335;48.860;9.198;2024-03-17T07:39:08;9.90;99.90
8595;DHT22;4335;48.860;9.198;2024-03-17T07:41:38;10.00;99.90
8595;DHT22;4335;48.860;9.198;2024-03-17T07:44:13;10.00;99.90
8595;DHT22;4335;48.860;9.198;2024-03-17T07:46:40;10.00;99.90
8595;DHT22;4335;48.860;9.198;2024-03-17T07:49:07;10.00;99.90
8595;DHT22;4335;48.860;9.198;2024-03-17T07:51:35;10.10;99.90
8595;DHT22;4335;48.860;9.198;2024-03-17T07:54:02;10.10;99.90
8595;DHT22;4335;48.860;9.198;2024-03-17T07:56:28;10.10;99.90
8595;DHT22;4335;48.860;9.198;2024-03-17T07:58:56;10.20;99.90
8595;DHT22;4335;48.860;9.198;2024-03-17T08:01:33;10.30;99.90
8595;DHT22;4335;48.860;9.198;2024-03-17T08:04:06;10.40;99.90
8595;DHT22;4335;48.860;9.198;2024-03-17T08:06:39;10.30;99.90
8595;DHT22;4335;48.860;9.198;2024-03-17T08:09:16;10.50;99.90
8595;DHT22;4335;48.860;9.198;2024-03-17T08:11:53;10.60;99.90
8595;DHT22;4335;48.860;9.198;2024-03-17T08:14:23;10.70;99.90
8595;DHT22;4335;48.860;9.198;2024-03-17T08:16:56;10.70;99.90
8595;DHT22;4335;48.860;9.198;2024-03-17T08:19:24;10.90;99.90
8595;DHT22;4335;48.860;9.198;2024-03-17T08:21:51;10.90;99.90
8595;DHT22;4335;48.860;9.198;2024-03-17T08:24:18;11.00;99.90
8595;DHT22;4335;48.860;9.198;2024-03-17T08:26:49;11.10;99.90
8595;DHT22;4335;48.860;9.198;2024-03-17T08:29:16;11.30;99.90
8595;DHT22;4335;48.860;9.198;2024-03-17T08:31:44;11.20;99.90
8595;DHT22;4335;48.860;9.198;2024-03-17T08:34:16;11.20;99.90
8595;DHT22;4335;48.860;9.198;2024-03-17T08:36:46;11.40;99.90
8595;DHT22;4335;48.860;9.198;2024-03-17T08:39:17;11.50;99.90
8595;DHT22;4335;48.860;9.198;2024-03-17T08:41:44;11.60;99.90
8595;DHT22;4335;48.860;9.198;2024-03-17T08:44:12;11.60;99.90
8595;DHT22;4335;48.860;9.198;2024-03-17T08:46:45;11.60;99.90
8595;DHT22;4335;48.860;9.198;2024-03-17T08:49:20;11.60;99.90
8595;DHT22;4335;48.860;9.198;2024-03-17T08:51:47;11.60;99.90
8595;DHT22;4335;48.860;9.198;2024-03-17T08:54:20;11.80;99.90
8595;DHT22;4335;48.860;9.198;2024-03-17T08:56:57;11.90;99.90
8595;DHT22;4335;48.860;9.198;2024-03-17T08:59:24;12.00;99.90
8595;DHT22;4335;48.860;9.198;2024-03-17T09:01:52;12.20;99.90
8595;DHT22;4335;48.860;9.198;2024-03-17T09:04:21;12.30;99.90
8595;DHT22;4335;48.860;9.198;2024-03-17T09:06:48;12.50;99.90
8595;DHT22;4335;48.860;9.198;2024-03-17T09:09:17;12.80;99.90
8595;DHT22;4335;48.860;9.198;2024-03-17T09:11:44;12.90;99.90
8595;DHT22;4335;48.860;9.198;2024-03-17T09:14:11;13.10;99.90
8595;DHT22;4335;48.860;9.198;2024-03-17T09:16:45;13.20;99.90
8595;DHT22;4335;48.860;9.198;2024-03-17T09:19:13;13.30;99.90
8595;DHT22;4335;48.860;9.198;2024-03-17T09:21:42;13.30;99.90
8595;DHT22;4335;48.860;9.198;2024-03-17T09:24:13;13.40;99.90
8595;DHT22;4335;48.860;9.198;2024-03-17T09:26:41;13.40;99.90
8595;DHT22;4335;48.860;9.198;2024-03-17T09:29:11;13.60;99.90
8595;DHT22;4335;48.860;9.198;2024-03-17T09:31:42;13.60;99.90
8595;DHT22;4335;48.860;9.198;2024-03-17T09:34:12;13.60;99.90
8595;DHT22;4335;48.860;9.198;2024-03-17T09:36:40;13.70;99.90
8595;DHT22;4335;48.860;9.198;2024-03-17T09:39:11;13.60;99.90
8595;DHT22;4335;48.860;9.198;2024-03-17T09:41:40;13.60;99.90
8595;DHT22;4335;48.860;9.198;2024-03-17T09:44:11;13.60;99.90
8595;DHT22;4335;48.860;9.198;2024-03-17T09:46:40;13.70;99.90
8595;DHT22;4335;48.860;9.198;2024-03-17T09:49:15;13.70;99.90
8595;DHT22;4335;48.860;9.198;2024-03-17T09:51:46;13.70;99.90
8595;DHT22;4335;48.860;9.198;2024-03-17T09:54:19;13.90;99.90
8595;DHT22;4335;48.860;9.198;2024-03-17T09:56:46;14.00;99.90
8595;DHT22;4335;48.860;9.198;2024-03-17T09:59:27;14.10;99.90
8595;DHT22;4335;48.860;9.198;2024-03-17T10:01:55;14.40;99.90
8595;DHT22;4335;48.860;9.198;2024-03-17T10:04:32;14.70;99.90
8595;DHT22;4335;48.860;9.198;2024-03-17T10:06:59;15.00;99.90
8595;DHT22;4335;48.860;9.198;2024-03-17T10:09:30;15.30;99.90
8595;DHT22;4335;48.860;9.198;2024-03-17T10:11:58;15.60;99.90
8595;DHT22;4335;48.860;9.198;2024-03-17T10:14:26;16.00;99.90
8595;DHT22;4335;48.860;9.198;2024-03-17T10:16:53;16.60;99.90
8595;DHT22;4335;48.860;9.198;2024-03-17T10:19:23;17.40;99.90
8595;DHT22;4335;48.860;9.198;2024-03-17T10:21:58;17.90;99.90
8595;DHT22;4335;48.860;9.198;2024-03-17T10:24:30;18.00;99.90
8595;DHT22;4335;48.860;9.198;2024-03-17T10:27:02;17.80;99.90
8595;DHT22;4335;48.860;9.198;2024-03-17T10:29:38;17.50;99.90
8595;DHT22;4335;48.860;9.198;2024-03-17T10:32:19;17.00;99.90
8595;DHT22;4335;48.860;9.198;2024-03-17T10:34:56;16.70;99.90
8595;DHT22;4335;48.860;9.198;2024-03-17T10:37:26;16.70;99.90
8595;DHT22;4335;48.860;9.198;2024-03-17T10:39:55;16.70;99.90
8595;DHT22;4335;48.860;9.198;2024-03-17T10:42:26;16.60;99.90
8595;DHT22;4335;48.860;9.198;2024-03-17T10:44:58;16.80;99.90
8595;DHT22;4335;48.860;9.198;2024-03-17T10:47:26;17.00;99.90
8595;DHT22;4335;48.860;9.198;2024-03-17T10:49:55;16.90;99.90
8595;DHT22;4335;48.860;9.198;2024-03-17T10:52:23;16.80;99.90
8595;DHT22;4335;48.860;9.198;2024-03-17T10:54:52;16.90;99.90
8595;DHT22;4335;48.860;9.198;2024-03-17T10:57:27;16.60;99.90
8595;DHT22;4335;48.860;9.198;2024-03-17T11:00:03;16.50;99.90
8595;DHT22;4335;48.860;9.198;2024-03-17T11:02:32;16.40;99.90
8595;DHT22;4335;48.860;9.198;2024-03-17T11:05:03;16.30;99.90
8595;DHT22;4335;48.860;9.198;2024-03-17T11:07:32;16.20;99.90
8595;DHT22;4335;48.860;9.198;2024-03-17T11:10:03;16.40;99.90
8595;DHT22;4335;48.860;9.198;2024-03-17T11:12:46;16.70;99.90
8595;DHT22;4335;48.860;9.198;2024-03-17T11:15:38;17.00;99.90
8595;DHT22;4335;48.860;9.198;2024-03-17T11:21:21;17.30;99.90
8595;DHT22;4335;48.860;9.198;2024-03-17T11:23:59;16.70;99.90
8595;DHT22;4335;48.860;9.198;2024-03-17T11:26:31;16.60;99.90
8595;DHT22;4335;48.860;9.198;2024-03-17T11:29:00;16.40;99.90
8595;DHT22;4335;48.860;9.198;2024-03-17T11:31:37;16.40;99.90
8595;DHT22;4335;48.860;9.198;2024-03-17T11:36:54;16.20;99.90
8595;DHT22;4335;48.860;9.198;2024-03-17T11:39:53;16.20;99.90
8595;DHT22;4335;48.860;9.198;2024-03-17T11:42:25;16.00;99.90
8595;DHT22;4335;48.860;9.198;2024-03-17T11:45:02;16.00;99.90
8595;DHT22;4335;48.860;9.198;2024-03-17T11:47:37;15.90;99.90
8595;DHT22;4335;48.860;9.198;2024-03-17T11:50:07;15.60;99.90
8595;DHT22;4335;48.860;9.198;2024-03-17T11:52:36;15.60;99.90
8595;DHT22;4335;48.860;9.198;2024-03-17T11:55:14;15.70;99.90
8595;DHT22;4335;48.860;9.198;2024-03-17T11:57:42;15.70;99.90
8595;DHT22;4335;48.860;9.198;2024-03-17T12:00:21;15.70;99.90
8595;DHT22;4335;48.860;9.198;2024-03-17T12:02:52;15.50;99.90
8595;DHT22;4335;48.860;9.198;2024-03-17T12:05:25;15.50;99.90
8595;DHT22;4335;48.860;9.198;2024-03-17T12:08:28;15.30;99.90
8595;DHT22;4335;48.860;9.198;2024-03-17T12:10:55;15.40;99.90
8595;DHT22;4335;48.860;9.198;2024-03-17T12:13:22;15.30;99.90
8595;DHT22;4335;48.860;9.198;2024-03-17T12:16:12;15.40;99.90
8595;DHT22;4335;48.860;9.198;2024-03-17T12:18:41;15.30;99.90
8595;DHT22;4335;48.860;9.198;2024-03-17T12:21:13;15.30;99.90
8595;DHT22;4335;48.860;9.198;2024-03-17T12:23:42;15.40;99.90
8595;DHT22;4335;48.860;9.198;2024-03-17T12:26:15;15.40;99.90
8595;DHT22;4335;48.860;9.198;2024-03-17T12:28:47;15.50;99.90
8595;DHT22;4335;48.860;9.198;2024-03-17T12:31:17;15.70;99.90
8595;DHT22;4335;48.860;9.198;2024-03-17T12:33:43;15.60;99.90
8595;DHT22;4335;48.860;9.198;2024-03-17T12:36:11;15.70;99.90
8595;DHT22;4335;48.860;9.198;2024-03-17T12:38:42;15.70;99.90
8595;DHT22;4335;48.860;9.198;2024-03-17T12:41:16;15.70;99.90
8595;DHT22;4335;48.860;9.198;2024-03-17T12:43:48;15.70;99.90
8595;DHT22;4335;48.860;9.198;2024-03-17T12:46:19;15.70;99.90
8595;DHT22;4335;48.860;9.198;2024-03-17T12:48:46;15.80;99.90
8595;DHT22;4335;48.860;9.198;2024-03-17T12:51:16;15.90;99.90
8595;DHT22;4335;48.860;9.198;2024-03-17T12:53:49;16.00;99.90
8595;DHT22;4335;48.860;9.198;2024-03-17T12:56:23;16.00;99.90
8595;DHT22;4335;48.860;9.198;2024-03-17T12:59:05;15.80;99.90
8595;DHT22;4335;48.860;9.198;2024-03-17T13:02:09;15.90;99.90
8595;DHT22;4335;48.860;9.198;2024-03-17T13:04:38;15.90;99.90
8595;DHT22;4335;48.860;9.198;2024-03-17T13:07:11;16.00;99.90
8595;DHT22;4335;48.860;9.198;2024-03-17T13:09:38;15.70;99.90
8595;DHT22;4335;48.860;9.198;2024-03-17T13:12:15;15.70;99.90
8595;DHT22;4335;48.860;9.198;2024-03-17T13:14:42;15.50;99.90
8595;DHT22;4335;48.860;9.198;2024-03-17T13:17:15;15.50;99.90
8595;DHT22;4335;48.860;9.198;2024-03-17T13:19:47;15.30;99.90
8595;DHT22;4335;48.860;9.198;2024-03-17T13:22:21;15.20;99.90
8595;DHT22;4335;48.860;9.198;2024-03-17T13:24:48;15.20;99.90
8595;DHT22;4335;48.860;9.198;2024-03-17T13:27:18;15.20;99.90
8595;DHT22;4335;48.860;9.198;2024-03-17T13:29:48;15.30;99.90
8595;DHT22;4335;48.860;9.198;2024-03-17T13:32:26;15.30;99.90
8595;DHT22;4335;48.860;9.198;2024-03-17T13:34:59;15.30;99.90
8595;DHT22;4335;48.860;9.198;2024-03-17T13:37:29;15.30;99.90
8595;DHT22;4335;48.860;9.198;2024-03-17T13:39:56;15.40;99.90
8595;DHT22;4335;48.860;9.198;2024-03-17T13:42:36;15.30;99.90
8595;DHT22;4335;48.860;9.198;2024-03-17T13:45:10;15.40;99.90
8595;DHT22;4335;48.860;9.198;2024-03-17T13:47:46;15.50;99.90
8595;DHT22;4335;48.860;9.198;2024-03-17T13:50:14;15.50;99.90
8595;DHT22;4335;48.860;9.198;2024-03-17T13:52:43;15.40;99.90
8595;DHT22;4335;48.860;9.198;2024-03-17T13:55:15;15.40;99.90
8595;DHT22;4335;48.860;9.198;2024-03-17T13:57:49;15.30;99.90
8595;DHT22;4335;48.860;9.198;2024-03-17T14:00:19;15.20;99.90
8595;DHT22;4335;48.860;9.198;2024-03-17T14:02:50;15.30;99.90
8595;DHT22;4335;48.860;9.198;2024-03-17T14:05:19;15.20;99.90
8595;DHT22;4335;48.860;9.198;2024-03-17T14:07:55;15.30;99.90
8595;DHT22;4335;48.860;9.198;2024-03-17T14:10:25;15.30;99.90
8595;DHT22;4335;48.860;9.198;2024-03-17T14:12:52;15.30;99.90
8595;DHT22;4335;48.860;9.198;2024-03-17T14:15:26;15.40;99.90
8595;DHT22;4335;48.860;9.198;2024-03-17T14:17:54;15.50;99.90
8595;DHT22;4335;48.860;9.198;2024-03-17T14:20:25;15.30;99.90
8595;DHT22;4335;48.860;9.198;2024-03-17T14:22:52;15.30;99.90
8595;DHT22;4335;48.860;9.198;2024-03-17T14:25:23;15.40;99.90
8595;DHT22;4335;48.860;9.198;2024-03-17T14:27:54;15.40;99.90
8595;DHT22;4335;48.860;9.198;2024-03-17T14:30:28;15.50;99.90
8595;DHT22;4335;48.860;9.198;2024-03-17T14:32:58;15.50;99.90
8595;DHT22;4335;48.860;9.198;2024-03-17T14:35:29;15.50;99.90
8595;DHT22;4335;48.860;9.198;2024-03-17T14:38:02;15.30;99.90
8595;DHT22;4335;48.860;9.198;2024-03-17T14:40:32;15.30;99.90
8595;DHT22;4335;48.860;9.198;2024-03-17T14:42:59;15.30;99.90
8595;DHT22;4335;48.860;9.198;2024-03-17T14:45:31;15.30;99.90
8595;DHT22;4335;48.860;9.198;2024-03-17T14:48:08;15.30;99.90
8595;DHT22;4335;48.860;9.198;2024-03-17T14:50:37;15.30;99.90
8595;DHT22;4335;48.860;9.198;2024-03-17T14:53:07;15.10;99.90
8595;DHT22;4335;48.860;9.198;2024-03-17T14:55:38;15.10;99.90
8595;DHT22;4335;48.860;9.198;2024-03-17T14:58:22;15.10;99.90
8595;DHT22;4335;48.860;9.198;2024-03-17T15:00:55;15.00;99.90
8595;DHT22;4335;48.860;9.198;2024-03-17T15:03:24;15.00;99.90
8595;DHT22;4335;48.860;9.198;2024-03-17T15:05:56;14.90;99.90
8595;DHT22;4335;48.860;9.198;2024-03-17T15:08:24;14.90;99.90
8595;DHT22;4335;48.860;9.198;2024-03-17T15:10:57;14.90;99.90
8595;DHT22;4335;48.860;9.198;2024-03-17T15:13:28;15.00;99.90
8595;DHT22;4335;48.860;9.198;2024-03-17T15:15:56;15.10;99.90
8595;DHT22;4335;48.860;9.198;2024-03-17T15:18:25;15.10;99.90
8595;DHT22;4335;48.860;9.198;2024-03-17T15:20:55;15.10;99.90
8595;DHT22;4335;48.860;9.198;2024-03-17T15:23:29;15.10;99.90
8595;DHT22;4335;48.860;9.198;2024-03-17T15:26:05;15.20;99.90
8595;DHT22;4335;48.860;9.198;2024-03-17T15:28:40;15.20;99.90
8595;DHT22;4335;48.860;9.198;2024-03-17T15:31:08;15.20;99.90
8595;DHT22;4335;48.860;9.198;2024-03-17T15:33:38;15.00;99.90
8595;DHT22;4335;48.860;9.198;2024-03-17T15:36:08;15.00;99.90
8595;DHT22;4335;48.860;9.198;2024-03-17T15:38:39;14.90;99.90
8595;DHT22;4335;48.860;9.198;2024-03-17T15:41:18;14.80;99.90
8595;DHT22;4335;48.860;9.198;2024-03-17T15:43:49;14.80;99.90
8595;DHT22;4335;48.860;9.198;2024-03-17T15:46:17;14.80;99.90
8595;DHT22;4335;48.860;9.198;2024-03-17T15:48:49;14.70;99.90
8595;DHT22;4335;48.860;9.198;2024-03-17T15:51:20;14.60;99.90
8595;DHT22;4335;48.860;9.198;2024-03-17T15:53:56;14.50;99.90
8595;DHT22;4335;48.860;9.198;2024-03-17T15:56:36;14.50;99.90
8595;DHT22;4335;48.860;9.198;2024-03-17T15:59:06;14.40;99.90
8595;DHT22;4335;48.860;9.198;2024-03-17T16:01:44;14.30;99.90
8595;DHT22;4335;48.860;9.198;2024-03-17T16:04:14;14.30;99.90
8595;DHT22;4335;48.860;9.198;2024-03-17T16:06:44;14.20;99.90
8595;DHT22;4335;48.860;9.198;2024-03-17T16:09:13;14.20;99.90
8595;DHT22;4335;48.860;9.198;2024-03-17T16:11:43;14.20;99.90
8595;DHT22;4335;48.860;9.198;2024-03-17T16:14:10;14.00;99.90
8595;DHT22;4335;48.860;9.198;2024-03-17T16:16:48;13.90;99.90
8595;DHT22;4335;48.860;9.198;2024-03-17T16:19:18;13.80;99.90
8595;DHT22;4335;48.860;9.198;2024-03-17T16:21:47;13.70;99.90
8595;DHT22;4335;48.860;9.198;2024-03-17T16:24:17;13.70;99.90
8595;DHT22;4335;48.860;9.198;2024-03-17T16:26:51;13.60;99.90
8595;DHT22;4335;48.860;9.198;2024-03-17T16:29:20;13.50;99.90
8595;DHT22;4335;48.860;9.198;2024-03-17T16:31:53;13.50;99.90
8595;DHT22;4335;48.860;9.198;2024-03-17T16:34:22;13.40;99.90
8595;DHT22;4335;48.860;9.198;2024-03-17T16:36:56;13.40;99.90
8595;DHT22;4335;48.860;9.198;2024-03-17T16:39:24;13.40;99.90